Time;durP1;ratioP1;P1;durP2;ratioP2;P2;SDS_P1;SDS_P2;PMS_P1;PMS_P2;Temp;Humidity;BMP_temperature;BMP_pressure;BME280_temperature;BME280_humidity;BME280_pressure;Samples;Min_cycle;Max_cycle;Signal;HPM_P1;HPM_P2
2023/05/06 00:00:48;;;;;;;966.97;791.63;;;10.90;99.90;;;;;;6186474;23;20416;-88
2023/05/06 00:03:16;;;;;;;979.20;799.53;;;10.70;99.90;;;;;;6185220;23;20413;-87
2023/05/06 00:05:44;;;;;;;967.83;783.97;;;10.70;99.90;;;;;;6194920;23;20433;-87
2023/05/06 00:08:11;;;;;;;979.90;792.00;;;10.60;99.90;;;;;;6186497;23;20417;-87
2023/05/06 00:10:38;;;;;;;988.57;792.97;;;10.60;99.90;;;;;;6196042;23;20436;-87
2023/05/06 00:13:07;;;;;;;984.77;799.83;;;10.60;99.90;;;;;;6195117;23;20448;-87
2023/05/06 00:15:34;;;;;;;1004.00;791.93;;;10.40;99.90;;;;;;6184854;23;20460;-86
2023/05/06 00:18:01;;;;;;;1000.70;802.00;;;10.40;99.90;;;;;;6186281;23;20476;-87
2023/05/06 00:20:30;;;;;;;986.07;795.83;;;10.30;99.90;;;;;;6185987;23;20448;-87
2023/05/06 00:22:57;;;;;;;982.17;784.97;;;10.30;99.90;;;;;;6185195;23;20493;-87
2023/05/06 00:25:24;;;;;;;976.80;785.67;;;10.20;99.90;;;;;;6185198;23;20501;-87
2023/05/06 00:27:52;;;;;;;974.17;782.80;;;10.30;99.90;;;;;;6185746;23;20499;-87
2023/05/06 00:30:19;;;;;;;986.73;804.20;;;10.20;99.90;;;;;;6186029;23;20421;-87
2023/05/06 00:32:46;;;;;;;969.37;796.00;;;10.10;99.90;;;;;;6185002;23;20451;-88
2023/05/06 00:35:13;;;;;;;953.30;782.33;;;10.10;99.90;;;;;;6185521;23;20413;-88
2023/05/06 00:37:44;;;;;;;957.37;786.00;;;10.00;99.90;;;;;;6185788;23;20520;-89
2023/05/06 00:40:12;;;;;;;966.37;777.87;;;10.00;99.90;;;;;;6186868;23;20437;-88
2023/05/06 00:42:40;;;;;;;975.37;774.00;;;9.90;99.90;;;;;;6185613;23;20417;-88
2023/05/06 00:45:07;;;;;;;970.13;762.20;;;10.10;99.90;;;;;;6185335;23;20924;-88
2023/05/06 00:47:35;;;;;;;976.60;766.50;;;10.10;99.90;;;;;;6186229;23;20440;-89
2023/05/06 00:50:02;;;;;;;981.50;788.80;;;10.10;99.90;;;;;;6196444;23;20897;-89
2023/05/06 00:52:30;;;;;;;979.87;798.80;;;10.20;99.90;;;;;;6185566;23;20445;-88
2023/05/06 00:54:58;;;;;;;982.83;762.80;;;10.10;99.90;;;;;;6185154;23;20469;-89
2023/05/06 00:57:25;;;;;;;986.73;783.10;;;10.20;99.90;;;;;;6186148;23;20444;-88
2023/05/06 00:59:53;;;;;;;995.90;796.47;;;10.10;99.90;;;;;;6186973;23;20440;-89
2023/05/06 01:02:20;;;;;;;994.47;770.97;;;10.00;99.90;;;;;;6194847;23;20858;-89
2023/05/06 01:04:47;;;;;;;990.63;791.90;;;9.90;99.90;;;;;;6185347;23;20417;-89
2023/05/06 01:07:24;;;;;;;1006.77;808.10;;;9.80;99.90;;;;;;6185694;23;20488;-89
2023/05/06 01:09:57;;;;;;;1019.30;806.57;;;9.80;99.90;;;;;;6186501;23;20488;-88
2023/05/06 01:12:33;;;;;;;1002.43;803.43;;;9.90;99.90;;;;;;6194991;23;20421;-89
2023/05/06 01:15:07;;;;;;;984.77;772.13;;;9.70;99.90;;;;;;6194731;23;20900;-88
2023/05/06 01:17:38;;;;;;;1008.50;791.33;;;9.70;99.90;;;;;;6195513;23;20438;-89
2023/05/06 01:20:09;;;;;;;996.03;816.73;;;9.50;99.90;;;;;;6186730;23;20940;-89
2023/05/06 01:22:37;;;;;;;988.67;811.23;;;9.60;99.90;;;;;;6184907;23;20479;-89
2023/05/06 01:25:06;;;;;;;986.50;791.17;;;9.70;99.90;;;;;;6185143;23;20416;-88
2023/05/06 01:27:33;;;;;;;999.90;772.17;;;9.50;99.90;;;;;;6185929;23;20781;-87
2023/05/06 01:30:02;;;;;;;973.73;778.90;;;9.30;99.90;;;;;;6186222;23;20476;-89
2023/05/06 01:32:40;;;;;;;1033.67;754.93;;;9.40;99.90;;;;;;6185538;23;20476;-88
2023/05/06 01:35:17;;;;;;;998.40;762.23;;;9.30;99.90;;;;;;6184963;23;20403;-88
2023/05/06 01:37:51;;;;;;;980.60;772.57;;;9.30;99.90;;;;;;6197818;23;20425;-88
2023/05/06 01:40:25;;;;;;;980.20;777.13;;;9.10;99.90;;;;;;6188113;23;20404;-89
2023/05/06 01:42:52;;;;;;;973.47;766.57;;;9.10;99.90;;;;;;6197147;23;20436;-89
2023/05/06 01:45:21;;;;;;;993.73;766.80;;;9.10;99.90;;;;;;6187057;23;20491;-88
2023/05/06 01:47:49;;;;;;;967.77;782.33;;;9.00;99.90;;;;;;6187799;23;20461;-89
2023/05/06 01:50:16;;;;;;;978.37;767.87;;;8.90;99.90;;;;;;6198423;23;20447;-88
2023/05/06 01:52:43;;;;;;;989.60;771.97;;;8.90;99.90;;;;;;6187105;23;20492;-88
2023/05/06 01:55:10;;;;;;;999.23;771.27;;;8.90;99.90;;;;;;6187207;23;20491;-89
2023/05/06 01:57:39;;;;;;;972.43;781.27;;;8.90;99.90;;;;;;6187478;23;20437;-88
2023/05/06 02:00:08;;;;;;;955.63;778.30;;;8.90;99.90;;;;;;6188238;23;20496;-89
2023/05/06 02:02:35;;;;;;;960.00;765.40;;;8.90;99.90;;;;;;6186667;23;20413;-90
2023/05/06 02:05:02;;;;;;;1018.17;754.70;;;8.80;99.90;;;;;;6196865;23;20447;-89
2023/05/06 02:07:29;;;;;;;959.93;776.77;;;9.00;99.90;;;;;;6187618;23;20413;-88
2023/05/06 02:09:56;;;;;;;977.90;786.90;;;9.00;99.90;;;;;;6198418;23;20409;-88
2023/05/06 02:12:23;;;;;;;997.43;778.90;;;8.90;99.90;;;;;;6187101;23;20470;-89
2023/05/06 02:14:51;;;;;;;947.40;771.77;;;8.90;99.90;;;;;;6186189;23;20504;-89
2023/05/06 02:17:18;;;;;;;1014.60;776.30;;;8.70;99.90;;;;;;6187492;23;20496;-88
2023/05/06 02:19:45;;;;;;;995.43;794.23;;;8.50;99.90;;;;;;6187961;23;20497;-89
2023/05/06 02:22:12;;;;;;;977.80;781.07;;;8.60;99.90;;;;;;6187308;23;20913;-89
2023/05/06 02:24:39;;;;;;;993.30;785.40;;;8.70;99.90;;;;;;6186609;23;20496;-89
2023/05/06 02:27:06;;;;;;;974.87;783.80;;;8.60;99.90;;;;;;6186696;23;20920;-89
2023/05/06 02:29:33;;;;;;;982.13;781.00;;;8.70;99.90;;;;;;6187978;23;20440;-89
2023/05/06 02:32:01;;;;;;;975.23;801.27;;;8.50;99.90;;;;;;6186576;23;20452;-89
2023/05/06 02:34:28;;;;;;;977.30;806.53;;;8.50;99.90;;;;;;6186052;23;20977;-89
2023/05/06 02:36:56;;;;;;;981.67;802.50;;;8.40;99.90;;;;;;6187056;23;20413;-89
2023/05/06 02:39:23;;;;;;;1028.43;823.50;;;8.40;99.90;;;;;;6187915;23;20472;-88
2023/05/06 02:41:50;;;;;;;1011.20;807.33;;;8.40;99.90;;;;;;6187258;23;20699;-89
2023/05/06 02:44:16;;;;;;;1004.03;820.47;;;8.30;99.90;;;;;;6186506;23;20496;-89
2023/05/06 02:46:43;;;;;;;1010.60;814.17;;;8.30;99.90;;;;;;6186482;23;20492;-88
2023/05/06 02:49:12;;;;;;;989.70;804.83;;;8.40;99.90;;;;;;6187737;23;20452;-88
2023/05/06 02:51:38;;;;;;;1018.50;829.67;;;8.50;99.90;;;;;;6186909;23;20437;-89
2023/05/06 02:54:05;;;;;;;1020.30;805.17;;;8.40;99.90;;;;;;6186008;23;20488;-89
2023/05/06 02:56:33;;;;;;;1011.97;813.53;;;8.50;99.90;;;;;;6186366;23;20464;-88
2023/05/06 02:59:00;;;;;;;978.13;785.60;;;8.40;99.90;;;;;;6187623;23;20445;-89
2023/05/06 03:01:27;;;;;;;980.00;790.97;;;8.40;99.90;;;;;;6186549;23;20508;-89
2023/05/06 03:03:54;;;;;;;997.30;782.70;;;8.40;99.90;;;;;;6186712;23;20516;-89
2023/05/06 03:06:23;;;;;;;992.30;789.60;;;8.30;99.90;;;;;;6186572;23;20405;-89
2023/05/06 03:08:50;;;;;;;978.20;789.27;;;8.30;99.90;;;;;;6187776;23;20437;-88
2023/05/06 03:11:16;;;;;;;996.60;806.60;;;8.20;99.90;;;;;;6196744;23;20931;-89
2023/05/06 03:13:43;;;;;;;996.63;785.53;;;8.20;99.90;;;;;;6186622;23;20443;-89
2023/05/06 03:16:13;;;;;;;981.97;812.50;;;8.10;99.90;;;;;;6196090;23;20487;-88
2023/05/06 03:18:40;;;;;;;1041.50;853.73;;;8.10;99.90;;;;;;6187830;23;20409;-88
2023/05/06 03:21:07;;;;;;;1015.43;850.10;;;8.10;99.90;;;;;;6187358;23;20441;-89
2023/05/06 03:23:35;;;;;;;1018.33;845.47;;;8.00;99.90;;;;;;6185854;23;20417;-88
2023/05/06 03:26:02;;;;;;;1027.20;836.43;;;8.00;99.90;;;;;;6186062;23;20495;-89
2023/05/06 03:28:29;;;;;;;996.60;820.43;;;8.00;99.90;;;;;;6187101;23;21031;-89
2023/05/06 03:30:56;;;;;;;1021.83;819.57;;;8.10;99.90;;;;;;6187038;23;20921;-89
2023/05/06 03:33:23;;;;;;;982.17;801.17;;;8.00;99.90;;;;;;6195949;23;20409;-89
2023/05/06 03:35:49;;;;;;;985.93;790.23;;;8.10;99.90;;;;;;6185449;23;20496;-86
2023/05/06 03:38:16;;;;;;;1005.43;773.37;;;8.10;99.90;;;;;;6187035;23;20440;-88
2023/05/06 03:40:48;;;;;;;1034.20;788.93;;;8.30;99.90;;;;;;6186739;23;20776;-87
2023/05/06 03:43:15;;;;;;;960.57;776.83;;;8.40;99.90;;;;;;6194953;23;20496;-88
2023/05/06 03:45:42;;;;;;;970.73;773.90;;;8.40;99.90;;;;;;6194884;23;20500;-89
2023/05/06 03:48:09;;;;;;;1033.10;793.70;;;8.50;99.90;;;;;;6187149;23;20472;-89
2023/05/06 03:50:39;;;;;;;1030.53;804.90;;;8.40;99.90;;;;;;6196859;23;20475;-88
2023/05/06 03:53:06;;;;;;;1014.30;804.27;;;8.50;99.90;;;;;;6185774;23;20413;-89
2023/05/06 03:55:33;;;;;;;931.77;794.90;;;8.30;99.90;;;;;;6185853;23;20423;-88
2023/05/06 03:58:02;;;;;;;1021.97;795.57;;;8.20;99.90;;;;;;6196054;23;20436;-88
2023/05/06 04:00:29;;;;;;;1063.20;802.20;;;8.10;99.90;;;;;;6196750;23;20423;-88
2023/05/06 04:02:55;;;;;;;1032.73;802.57;;;8.10;99.90;;;;;;6185773;23;20932;-88
2023/05/06 04:05:22;;;;;;;1062.63;793.07;;;8.00;99.90;;;;;;6186535;23;20892;-90
2023/05/06 04:07:49;;;;;;;981.73;789.70;;;7.90;99.90;;;;;;6187085;23;20444;-90
2023/05/06 04:10:16;;;;;;;989.87;801.53;;;8.00;99.90;;;;;;6186642;23;20451;-87
2023/05/06 04:12:43;;;;;;;958.53;811.70;;;7.90;99.90;;;;;;6185437;23;20812;-88
2023/05/06 04:15:12;;;;;;;980.57;782.00;;;7.90;99.90;;;;;;6185671;23;20497;-85
2023/05/06 04:17:39;;;;;;;954.03;796.40;;;7.80;99.90;;;;;;6195494;23;20423;-84
2023/05/06 04:20:10;;;;;;;959.67;814.53;;;7.90;99.90;;;;;;6187364;23;20414;-89
2023/05/06 04:22:37;;;;;;;944.47;808.43;;;7.80;99.90;;;;;;6199224;23;20405;-87
2023/05/06 04:25:06;;;;;;;932.53;804.03;;;7.90;99.90;;;;;;6185934;23;20444;-88
2023/05/06 04:27:33;;;;;;;920.17;802.50;;;7.90;99.90;;;;;;6196563;23;20420;-88
2023/05/06 04:29:59;;;;;;;929.73;800.83;;;7.80;99.90;;;;;;6187177;23;20991;-88
2023/05/06 04:32:28;;;;;;;912.20;780.13;;;8.00;99.90;;;;;;6186435;23;20397;-88
2023/05/06 04:34:55;;;;;;;928.57;785.30;;;8.00;99.90;;;;;;6186380;23;20447;-88
2023/05/06 04:37:22;;;;;;;962.80;804.97;;;8.00;99.90;;;;;;6186960;23;20459;-89
2023/05/06 04:39:49;;;;;;;930.10;791.10;;;8.20;99.90;;;;;;6187299;23;20413;-89
2023/05/06 04:42:16;;;;;;;952.93;785.93;;;8.20;99.90;;;;;;6185669;23;20496;-88
2023/05/06 04:44:43;;;;;;;946.80;788.70;;;8.30;99.90;;;;;;6185703;23;20413;-89
2023/05/06 04:47:11;;;;;;;990.33;811.73;;;8.30;99.90;;;;;;6196630;23;20409;-89
2023/05/06 04:49:40;;;;;;;984.40;809.00;;;8.40;99.90;;;;;;6187355;23;20443;-89
2023/05/06 04:52:06;;;;;;;975.10;809.90;;;8.40;99.90;;;;;;6186855;23;20452;-91
2023/05/06 04:54:33;;;;;;;968.60;822.00;;;8.50;99.90;;;;;;6197027;23;20972;-91
2023/05/06 04:57:01;;;;;;;983.47;806.80;;;8.50;99.90;;;;;;6187118;23;20413;-91
2023/05/06 04:59:27;;;;;;;973.37;814.63;;;8.60;99.90;;;;;;6188481;23;20409;-91
2023/05/06 05:01:54;;;;;;;1011.00;806.30;;;8.60;99.90;;;;;;6187265;23;20444;-91
2023/05/06 05:04:21;;;;;;;950.07;793.37;;;8.70;99.90;;;;;;6197032;23;20479;-91
2023/05/06 05:06:50;;;;;;;910.00;789.37;;;8.80;99.90;;;;;;6187359;23;20416;-90
2023/05/06 05:09:17;;;;;;;909.67;797.93;;;8.80;99.90;;;;;;6187979;23;20468;-91
2023/05/06 05:11:44;;;;;;;899.43;800.10;;;8.90;99.90;;;;;;6187515;23;20424;-91
2023/05/06 05:14:11;;;;;;;919.57;818.07;;;9.00;99.90;;;;;;6196689;23;20409;-91
2023/05/06 05:16:38;;;;;;;950.30;847.33;;;9.00;99.90;;;;;;6186794;23;20504;-91
2023/05/06 05:19:05;;;;;;;951.00;847.80;;;9.00;99.90;;;;;;6187875;23;20441;-91
2023/05/06 05:21:32;;;;;;;956.50;852.23;;;9.10;99.90;;;;;;6187717;23;20419;-91
2023/05/06 05:24:00;;;;;;;886.73;788.93;;;9.30;99.90;;;;;;6195610;23;20421;-91
2023/05/06 05:26:27;;;;;;;871.87;765.83;;;9.60;99.90;;;;;;6187767;23;20743;-91
2023/05/06 05:28:54;;;;;;;853.97;761.40;;;10.10;99.90;;;;;;6187766;23;20464;-91
2023/05/06 05:31:21;;;;;;;799.53;719.03;;;10.70;99.90;;;;;;6186646;23;20491;-91
2023/05/06 05:33:48;;;;;;;739.47;665.33;;;11.10;99.90;;;;;;6186605;23;20500;-94
2023/05/06 05:36:15;;;;;;;721.23;648.40;;;11.50;99.90;;;;;;6187172;23;20448;-88
2023/05/06 05:38:42;;;;;;;729.37;657.17;;;11.80;99.90;;;;;;6186499;23;20484;-90
2023/05/06 05:41:11;;;;;;;713.77;644.30;;;12.20;99.90;;;;;;6186292;23;20420;-90
2023/05/06 05:43:38;;;;;;;674.13;615.30;;;12.60;99.90;;;;;;6185106;23;20923;-89
2023/05/06 05:46:05;;;;;;;659.40;605.87;;;12.80;99.90;;;;;;6185806;23;20417;-92
2023/05/06 05:48:32;;;;;;;558.70;524.77;;;13.30;99.90;;;;;;6186997;23;20445;-89
2023/05/06 05:51:01;;;;;;;440.60;416.83;;;13.40;99.90;;;;;;6195834;23;20409;-89
2023/05/06 05:53:28;;;;;;;175.60;167.90;;;13.80;99.90;;;;;;6185231;23;20408;-89
2023/05/06 05:55:55;;;;;;;69.87;66.27;;;13.90;99.90;;;;;;6185271;23;20454;-88
2023/05/06 05:58:24;;;;;;;40.47;37.93;;;14.20;99.90;;;;;;6186163;23;20727;-86
2023/05/06 06:00:51;;;;;;;24.97;22.90;;;14.50;99.90;;;;;;6185789;23;20477;-86
2023/05/06 06:03:18;;;;;;;19.63;17.83;;;14.80;99.90;;;;;;6195026;23;20413;-86
2023/05/06 06:05:45;;;;;;;14.53;11.80;;;15.10;99.90;;;;;;6185317;23;20501;-87
2023/05/06 06:08:12;;;;;;;16.00;10.87;;;15.30;99.90;;;;;;6186411;23;20492;-86
2023/05/06 06:10:40;;;;;;;14.20;11.37;;;15.70;99.90;;;;;;6185714;23;20470;-86
2023/05/06 06:13:07;;;;;;;12.87;9.83;;;15.90;99.90;;;;;;6184915;23;20422;-86
2023/05/06 06:15:36;;;;;;;11.40;9.30;;;16.20;99.90;;;;;;6185273;23;20959;-86
2023/05/06 06:18:03;;;;;;;11.87;9.40;;;16.10;99.90;;;;;;6195561;23;20473;-87
2023/05/06 06:20:32;;;;;;;15.80;9.20;;;16.30;99.90;;;;;;6186026;23;20479;-89
2023/05/06 06:22:59;;;;;;;12.73;10.10;;;16.30;99.90;;;;;;6187044;23;20913;-86
2023/05/06 06:25:27;;;;;;;11.90;9.30;;;16.50;99.90;;;;;;6186516;23;20470;-87
2023/05/06 06:27:55;;;;;;;13.30;9.30;;;16.60;99.90;;;;;;6187815;23;20414;-87
2023/05/06 06:30:22;;;;;;;11.33;8.17;;;16.40;99.90;;;;;;6187659;23;20444;-87
2023/05/06 06:32:52;;;;;;;14.40;9.33;;;16.50;99.90;;;;;;6186961;23;20902;-87
2023/05/06 06:35:19;;;;;;;17.50;8.90;;;16.20;99.90;;;;;;6187134;23;20464;-88
2023/05/06 06:37:47;;;;;;;11.57;8.67;;;16.10;99.90;;;;;;6187608;23;20914;-87
2023/05/06 06:40:15;;;;;;;13.13;8.40;;;16.10;99.90;;;;;;6198674;23;20414;-87
2023/05/06 06:42:42;;;;;;;13.13;8.47;;;16.20;99.90;;;;;;6186628;23;20418;-86
2023/05/06 06:45:10;;;;;;;11.40;7.80;;;16.20;99.90;;;;;;6186858;23;20449;-87
2023/05/06 06:47:37;;;;;;;12.70;7.60;;;16.30;99.90;;;;;;6186846;23;20418;-87
2023/05/06 06:50:06;;;;;;;11.87;7.73;;;16.30;99.90;;;;;;6187805;23;20472;-87
2023/05/06 06:52:34;;;;;;;10.87;7.00;;;16.20;99.90;;;;;;6197018;23;20412;-88
2023/05/06 06:55:01;;;;;;;12.33;7.33;;;16.30;99.90;;;;;;6186724;23;20418;-85
2023/05/06 06:57:28;;;;;;;10.33;7.47;;;16.40;99.90;;;;;;6186625;23;20427;-85
2023/05/06 06:59:55;;;;;;;9.10;6.87;;;16.20;99.90;;;;;;6187592;23;20509;-83
2023/05/06 07:02:22;;;;;;;12.33;8.00;;;16.10;99.90;;;;;;6186067;23;20495;-84
2023/05/06 07:04:49;;;;;;;10.23;8.03;;;16.00;99.90;;;;;;6186083;23;20417;-86
2023/05/06 07:07:17;;;;;;;14.60;9.50;;;16.00;99.90;;;;;;6186525;23;20503;-85
2023/05/06 07:09:44;;;;;;;16.23;14.67;;;15.90;99.90;;;;;;6187366;23;20457;-84
2023/05/06 07:12:11;;;;;;;13.70;12.50;;;16.00;99.90;;;;;;6196121;23;20444;-81
2023/05/06 07:14:38;;;;;;;15.87;14.63;;;15.90;99.90;;;;;;6185962;23;20458;-86
2023/05/06 07:17:05;;;;;;;15.70;14.40;;;15.80;99.90;;;;;;6187004;23;20452;-84
2023/05/06 07:19:32;;;;;;;22.50;20.80;;;15.70;99.90;;;;;;6187321;23;20494;-85
2023/05/06 07:22:01;;;;;;;18.70;17.00;;;15.80;99.90;;;;;;6185951;23;20471;-85
2023/05/06 07:24:30;;;;;;;25.17;23.47;;;15.80;99.90;;;;;;6186070;23;20420;-84
2023/05/06 07:26:57;;;;;;;29.23;27.03;;;15.90;99.90;;;;;;6186417;23;20415;-85
2023/05/06 07:29:24;;;;;;;12.30;11.20;;;15.70;99.90;;;;;;6187140;23;20450;-85
2023/05/06 07:31:51;;;;;;;20.10;18.70;;;15.80;99.90;;;;;;6185611;23;20422;-86
2023/05/06 07:34:19;;;;;;;22.83;21.33;;;15.70;99.90;;;;;;6195136;23;20891;-85
2023/05/06 07:36:46;;;;;;;15.23;14.13;;;15.80;99.90;;;;;;6186179;23;20418;-85
2023/05/06 07:39:14;;;;;;;16.90;15.70;;;15.90;99.90;;;;;;6187128;23;20423;-85
2023/05/06 07:41:42;;;;;;;12.80;11.70;;;15.90;99.90;;;;;;6185874;23;20507;-85
2023/05/06 07:44:09;;;;;;;12.37;11.27;;;16.00;99.90;;;;;;6186185;23;20474;-86
2023/05/06 07:46:36;;;;;;;12.13;11.07;;;16.10;99.90;;;;;;6186089;23;20423;-86
2023/05/06 07:49:03;;;;;;;9.83;6.20;;;16.20;99.90;;;;;;6186639;23;20423;-86
2023/05/06 07:51:30;;;;;;;9.20;6.30;;;16.20;99.90;;;;;;6186487;23;20417;-85
2023/05/06 07:53:57;;;;;;;8.23;7.10;;;16.40;99.90;;;;;;6185902;23;20419;-85
2023/05/06 07:56:24;;;;;;;8.30;5.93;;;16.60;99.90;;;;;;6195745;23;20815;-84
2023/05/06 07:58:53;;;;;;;10.63;5.30;;;16.70;99.90;;;;;;6188311;23;20512;-85
2023/05/06 08:01:20;;;;;;;10.15;4.90;;;16.90;99.90;;;;;;6184752;23;20412;-84
2023/05/06 08:03:46;;;;;;;6.63;3.60;;;17.00;99.90;;;;;;6185966;23;20557;-85
2023/05/06 08:06:15;;;;;;;7.80;4.67;;;17.60;99.90;;;;;;6186469;23;20420;-83
2023/05/06 08:08:42;;;;;;;6.90;3.50;;;17.90;99.90;;;;;;6187699;23;20446;-84
2023/05/06 08:11:09;;;;;;;7.90;3.50;;;18.30;99.90;;;;;;6186916;23;20470;-83
2023/05/06 08:13:36;;;;;;;6.57;3.10;;;18.80;99.90;;;;;;6195945;23;20769;-84
2023/05/06 08:16:05;;;;;;;6.00;3.50;;;19.10;99.90;;;;;;6186346;23;20413;-83
2023/05/06 08:18:32;;;;;;;6.17;3.70;;;19.30;99.90;;;;;;6197771;23;20446;-83
2023/05/06 08:20:59;;;;;;;6.47;3.37;;;19.50;99.90;;;;;;6185270;23;20494;-82
2023/05/06 08:23:26;;;;;;;8.10;3.80;;;20.10;99.90;;;;;;6186065;23;20440;-83
2023/05/06 08:25:53;;;;;;;6.03;2.97;;;20.00;99.90;;;;;;6185598;23;20792;-84
2023/05/06 08:28:20;;;;;;;7.50;3.07;;;20.70;99.90;;;;;;6186726;23;20420;-84
2023/05/06 08:30:50;;;;;;;8.10;2.87;;;20.80;97.90;;;;;;6196124;23;20439;-84
2023/05/06 08:33:18;;;;;;;6.53;3.40;;;20.90;98.20;;;;;;6185473;23;21002;-84
2023/05/06 08:35:45;;;;;;;8.10;3.60;;;21.10;96.60;;;;;;6185350;23;20967;-84
2023/05/06 08:38:12;;;;;;;6.93;3.57;;;21.50;96.50;;;;;;6187166;23;20498;-84
2023/05/06 08:40:43;;;;;;;6.07;3.67;;;21.80;95.90;;;;;;6186314;23;20413;-84
2023/05/06 08:43:13;;;;;;;8.30;3.37;;;22.20;94.70;;;;;;6185656;23;20416;-84
2023/05/06 08:45:40;;;;;;;7.00;3.90;;;22.30;91.40;;;;;;6185075;23;20416;-84
2023/05/06 08:48:08;;;;;;;8.13;3.70;;;22.70;92.00;;;;;;6186532;23;20417;-85
2023/05/06 08:50:42;;;;;;;7.40;3.17;;;22.80;89.30;;;;;;6196262;23;20441;-84
2023/05/06 08:53:11;;;;;;;5.70;3.07;;;22.70;88.50;;;;;;6195181;23;20710;-84
2023/05/06 08:55:40;;;;;;;6.10;3.30;;;22.90;82.70;;;;;;6184931;23;20416;-85
2023/05/06 08:58:07;;;;;;;5.40;2.60;;;22.70;81.80;;;;;;6186536;23;20496;-90
2023/05/06 09:00:35;;;;;;;5.83;2.97;;;23.10;77.80;;;;;;6188007;23;20488;-90
2023/05/06 09:03:02;;;;;;;6.70;2.93;;;23.00;80.90;;;;;;6198563;23;20448;-91
2023/05/06 09:05:29;;;;;;;6.27;3.23;;;22.70;77.30;;;;;;6188605;23;20421;-89
2023/05/06 09:07:57;;;;;;;7.20;3.53;;;22.90;75.00;;;;;;6189022;23;20419;-90
2023/05/06 09:10:31;;;;;;;5.90;2.90;;;23.50;75.30;;;;;;6188584;23;20463;-90
2023/05/06 09:12:58;;;;;;;5.37;2.20;;;23.90;77.90;;;;;;6189434;23;20454;-90
2023/05/06 09:15:27;;;;;;;8.33;3.27;;;24.10;71.30;;;;;;6188624;23;20444;-90
2023/05/06 09:17:56;;;;;;;5.20;2.47;;;24.10;65.60;;;;;;6188650;23;20416;-89
2023/05/06 09:20:22;;;;;;;5.10;2.30;;;24.30;64.00;;;;;;6188166;23;20901;-90
2023/05/06 09:22:50;;;;;;;5.40;2.10;;;24.90;64.70;;;;;;6188314;23;20409;-89
2023/05/06 09:25:19;;;;;;;5.30;2.10;;;24.70;57.60;;;;;;6198521;23;20467;-90
2023/05/06 09:27:46;;;;;;;4.57;1.67;;;24.50;57.50;;;;;;6198400;23;20468;-89
2023/05/06 09:30:14;;;;;;;8.73;1.90;;;23.90;56.90;;;;;;6188213;23;20428;-89
2023/05/06 09:32:41;;;;;;;6.60;2.40;;;23.50;60.80;;;;;;6198641;23;20390;-90
2023/05/06 09:35:11;;;;;;;5.93;2.40;;;23.10;61.80;;;;;;6188904;23;20909;-90
2023/05/06 09:37:39;;;;;;;9.40;2.70;;;23.10;64.70;;;;;;6190036;23;20420;-90
2023/05/06 09:40:08;;;;;;;7.03;1.90;;;23.90;64.30;;;;;;6188935;23;20472;-90
2023/05/06 09:42:36;;;;;;;5.00;2.00;;;24.10;57.10;;;;;;6188421;23;20452;-90
2023/05/06 09:45:03;;;;;;;6.10;2.20;;;24.30;57.30;;;;;;6188961;23;20409;-90
2023/05/06 09:47:33;;;;;;;4.97;2.07;;;24.10;54.90;;;;;;6189533;23;20436;-90
2023/05/06 09:50:01;;;;;;;7.00;2.67;;;24.70;55.50;;;;;;6198557;23;20715;-90
2023/05/06 09:52:29;;;;;;;6.20;1.73;;;25.00;53.70;;;;;;6199104;23;20436;-90
2023/05/06 09:54:57;;;;;;;5.70;1.70;;;25.30;46.30;;;;;;6188495;23;20420;-90
2023/05/06 09:57:24;;;;;;;6.20;2.33;;;24.70;47.80;;;;;;6189799;23;20412;-91
2023/05/06 09:59:54;;;;;;;5.50;1.50;;;24.70;48.20;;;;;;6191286;23;20467;-91
2023/05/06 10:02:23;;;;;;;5.03;1.60;;;24.90;50.60;;;;;;6190942;23;20421;-91
2023/05/06 10:04:50;;;;;;;6.20;2.03;;;25.10;45.40;;;;;;6200713;23;20781;-90
2023/05/06 10:07:22;;;;;;;5.97;1.63;;;25.80;40.50;;;;;;6201446;23;20439;-90
2023/05/06 10:09:50;;;;;;;5.80;1.30;;;26.00;41.90;;;;;;6190085;23;20393;-89
2023/05/06 10:12:18;;;;;;;5.80;1.43;;;25.60;40.40;;;;;;6189225;23;20412;-90
2023/05/06 10:14:45;;;;;;;5.60;1.27;;;24.80;43.60;;;;;;6188703;23;20479;-88
2023/05/06 10:17:14;;;;;;;5.43;1.47;;;25.20;42.50;;;;;;6189169;23;20472;-92
2023/05/06 10:19:45;;;;;;;5.47;1.57;;;24.70;40.90;;;;;;6190050;23;20912;-88
2023/05/06 10:22:18;;;;;;;5.50;1.57;;;24.40;41.90;;;;;;6189060;23;20519;-89
2023/05/06 10:24:55;;;;;;;8.80;1.40;;;24.80;39.80;;;;;;6189310;23;20408;-89
2023/05/06 10:27:25;;;;;;;5.47;1.17;;;25.40;40.30;;;;;;6189125;23;20403;-92
2023/05/06 10:29:53;;;;;;;4.70;1.20;;;25.10;35.40;;;;;;6189451;23;20468;-88
2023/05/06 10:32:21;;;;;;;6.07;1.40;;;25.30;36.60;;;;;;6188535;23;20404;-92
2023/05/06 10:34:55;;;;;;;4.83;1.27;;;25.30;30.20;;;;;;6198958;23;20873;-88
2023/05/06 10:37:24;;;;;;;5.20;1.37;;;26.00;28.50;;;;;;6189439;23;20479;-90
2023/05/06 10:39:53;;;;;;;8.20;1.67;;;26.90;25.70;;;;;;6188962;23;20434;-85
2023/05/06 10:42:20;;;;;;;5.67;1.23;;;27.40;24.60;;;;;;6186696;23;20492;-85
2023/05/06 10:44:58;;;;;;;6.07;1.70;;;26.90;24.30;;;;;;6186222;23;20496;-86
2023/05/06 10:47:26;;;;;;;5.07;1.00;;;27.60;21.00;;;;;;6186073;23;20496;-86
2023/05/06 10:50:21;;;;;;;6.60;1.30;;;28.20;17.60;;;;;;6183865;23;20423;-86
2023/05/06 10:52:50;;;;;;;5.40;1.50;;;28.00;17.40;;;;;;6180066;23;20412;-85
2023/05/06 10:55:29;;;;;;;6.23;1.60;;;27.10;19.20;;;;;;6185989;23;20495;-86
2023/05/06 10:57:57;;;;;;;6.93;1.70;;;27.40;15.70;;;;;;6196909;23;20428;-85
2023/05/06 11:00:24;;;;;;;4.87;1.23;;;27.70;17.30;;;;;;6186885;23;20520;-86
2023/05/06 11:02:56;;;;;;;6.83;1.30;;;27.70;17.30;;;;;;6196118;23;20749;-85
2023/05/06 11:05:24;;;;;;;6.30;1.60;;;26.70;16.70;;;;;;6186008;23;20853;-84
2023/05/06 11:07:52;;;;;;;5.30;1.43;;;27.40;17.10;;;;;;6186473;23;20451;-86
2023/05/06 11:10:32;;;;;;;5.70;1.30;;;27.90;17.40;;;;;;6186995;23;20417;-86
2023/05/06 11:13:19;;;;;;;5.60;1.60;;;28.60;10.80;;;;;;6185888;23;20447;-85
2023/05/06 11:15:49;;;;;;;5.07;1.57;;;28.50;10.00;;;;;;6195632;23;20719;-85
2023/05/06 11:18:42;;;;;;;7.13;1.67;;;28.80;9.80;;;;;;6187043;23;20528;-85
2023/05/06 11:21:38;;;;;;;6.07;1.40;;;28.60;8.30;;;;;;6185902;23;20465;-87
2023/05/06 11:24:13;;;;;;;5.90;1.53;;;28.70;8.00;;;;;;6186125;23;20413;-87
2023/05/06 11:26:41;;;;;;;4.87;1.40;;;27.70;9.60;;;;;;6186727;23;20371;-86
2023/05/06 11:29:09;;;;;;;5.00;1.40;;;27.20;13.70;;;;;;6187019;23;20417;-85
2023/05/06 11:31:41;;;;;;;5.40;1.50;;;26.70;12.20;;;;;;6186245;23;20416;-83
2023/05/06 11:34:11;;;;;;;8.33;1.50;;;26.40;16.50;;;;;;6185913;23;20776;-83
2023/05/06 11:36:46;;;;;;;5.60;1.60;;;26.00;15.40;;;;;;6186147;23;20401;-83
2023/05/06 11:39:13;;;;;;;5.30;1.70;;;25.80;20.40;;;;;;6186794;23;20435;-83
2023/05/06 11:41:40;;;;;;;7.03;1.53;;;25.40;19.80;;;;;;6186218;23;20524;-83
2023/05/06 11:44:08;;;;;;;6.73;1.40;;;25.60;23.60;;;;;;6195451;23;20423;-83
2023/05/06 11:46:35;;;;;;;8.10;1.40;;;26.70;20.70;;;;;;6186051;23;20718;-83
2023/05/06 11:49:17;;;;;;;4.97;1.50;;;26.20;15.20;;;;;;6185208;23;20912;-83
2023/05/06 11:51:44;;;;;;;5.80;1.70;;;26.20;16.40;;;;;;6185981;23;20467;-84
2023/05/06 11:54:12;;;;;;;4.70;1.40;;;27.20;15.10;;;;;;6185770;23;20413;-85
2023/05/06 11:56:44;;;;;;;4.80;1.23;;;28.00;9.80;;;;;;6185658;23;20898;-85
2023/05/06 11:59:11;;;;;;;5.17;1.60;;;28.40;10.00;;;;;;6186541;23;20420;-85
2023/05/06 12:01:41;;;;;;;5.57;1.63;;;28.90;5.50;;;;;;6185780;23;20439;-86
2023/05/06 12:04:08;;;;;;;5.67;1.30;;;28.90;7.80;;;;;;6195241;23;20405;-86
2023/05/06 12:06:37;;;;;;;6.40;1.40;;;28.20;5.70;;;;;;6186800;23;20440;-86
2023/05/06 12:09:06;;;;;;;4.90;1.47;;;28.70;5.90;;;;;;6187539;23;20421;-86
2023/05/06 12:11:34;;;;;;;7.60;1.30;;;28.20;3.80;;;;;;6186782;23;20412;-85
2023/05/06 12:14:01;;;;;;;4.63;1.47;;;27.80;11.60;;;;;;6195832;23;20417;-85
2023/05/06 12:16:29;;;;;;;8.17;1.70;;;27.50;4.50;;;;;;6186206;23;20413;-86
2023/05/06 12:18:56;;;;;;;7.83;1.70;;;28.80;7.30;;;;;;6186811;23;20448;-85
2023/05/06 12:21:23;;;;;;;5.73;1.40;;;28.90;2.30;;;;;;6185896;23;20437;-84
2023/05/06 12:23:52;;;;;;;6.40;1.37;;;27.80;6.20;;;;;;6185226;23;20479;-84
2023/05/06 12:26:20;;;;;;;6.40;1.87;;;26.30;7.00;;;;;;6185687;23;20475;-86
2023/05/06 12:28:47;;;;;;;8.93;1.40;;;26.80;11.10;;;;;;6187415;23;20733;-85
2023/05/06 12:31:20;;;;;;;7.10;2.70;;;27.60;9.50;;;;;;6186216;23;20455;-87
2023/05/06 12:33:49;;;;;;;9.53;1.80;;;26.60;9.00;;;;;;6196876;23;20413;-86